RTC234 SVBM-MPTO
Flight info
| Callsign | RTC234 |
|---|---|
| Flight time | N/A |
| Altitude | 34000 |
| Route | ATEXA1 KOKRY DCT UBNIG DCT PUMPA DCT ESEDA LODOP1C |
| Aircraft | MD83/M-SDFGIRWY/C |
Departure
| Time | 2026-05-05 01:47 |
|---|---|
| Airport | Jacinto Lara International Airport (SVBM) |
Arrival
| Time | N/A |
|---|---|
| Airport | Tocumen International Airport (MPTO) |
| Time | Latitude | Longitude | Altitude | Speed | Heading |
|---|---|---|---|---|---|
| 2026-05-05 01:34 | 10.04543 | -69.35882 | 2046 ft | 0 kts | 346° |
| 2026-05-05 01:37 | 10.04535 | -69.35879 | 2046 ft | 2 kts | 323° |
| 2026-05-05 01:38 | 10.04522 | -69.35871 | 2046 ft | 2 kts | 347° |
| 2026-05-05 01:38 | 10.04506 | -69.35868 | 2046 ft | 2 kts | 349° |
| 2026-05-05 01:38 | 10.04492 | -69.35865 | 2046 ft | 2 kts | 345° |
| 2026-05-05 01:38 | 10.04483 | -69.35862 | 2045 ft | 2 kts | 345° |
| 2026-05-05 01:39 | 10.04468 | -69.35857 | 2045 ft | 2 kts | 325° |
| 2026-05-05 01:39 | 10.04457 | -69.35846 | 2045 ft | 2 kts | 308° |
| 2026-05-05 01:39 | 10.04449 | -69.35833 | 2045 ft | 2 kts | 290° |
| 2026-05-05 01:39 | 10.04446 | -69.35818 | 2045 ft | 2 kts | 273° |
| 2026-05-05 01:40 | 10.04446 | -69.35809 | 2045 ft | 1 kts | 262° |
| 2026-05-05 01:40 | 10.04447 | -69.35802 | 2045 ft | 0 kts | 261° |
| 2026-05-05 01:42 | 10.04446 | -69.35805 | 2045 ft | 2 kts | 261° |
| 2026-05-05 01:42 | 10.04440 | -69.35841 | 2045 ft | 7 kts | 260° |
| 2026-05-05 01:43 | 10.04425 | -69.35928 | 2045 ft | 16 kts | 262° |
| 2026-05-05 01:43 | 10.04405 | -69.36059 | 2044 ft | 19 kts | 261° |
| 2026-05-05 01:43 | 10.04384 | -69.36198 | 2044 ft | 20 kts | 261° |
| 2026-05-05 01:43 | 10.04360 | -69.36346 | 2050 ft | 19 kts | 261° |
| 2026-05-05 01:44 | 10.04340 | -69.36492 | 2052 ft | 21 kts | 263° |
| 2026-05-05 01:44 | 10.04314 | -69.36647 | 2054 ft | 21 kts | 261° |
| 2026-05-05 01:44 | 10.04292 | -69.36788 | 2055 ft | 18 kts | 261° |
| 2026-05-05 01:44 | 10.04273 | -69.36910 | 2053 ft | 17 kts | 261° |
| 2026-05-05 01:45 | 10.04254 | -69.37037 | 2049 ft | 18 kts | 261° |
| 2026-05-05 01:45 | 10.04209 | -69.37124 | 2049 ft | 9 kts | 197° |
| 2026-05-05 01:45 | 10.04184 | -69.37125 | 2050 ft | 0 kts | 174° |
| 2026-05-05 01:45 | 10.04179 | -69.37125 | 2050 ft | 5 kts | 174° |
| 2026-05-05 01:46 | 10.04114 | -69.37117 | 2052 ft | 10 kts | 173° |
| 2026-05-05 01:46 | 10.04072 | -69.37088 | 2053 ft | 6 kts | 105° |
| 2026-05-05 01:46 | 10.04082 | -69.36986 | 2053 ft | 29 kts | 81° |
| 2026-05-05 01:46 | 10.04161 | -69.36468 | 2050 ft | 120 kts | 82° |
| 2026-05-05 01:47 | 10.04339 | -69.35347 | 2157 ft | 190 kts | 81° |
| 2026-05-05 01:47 | 10.04581 | -69.34011 | 3227 ft | 201 kts | 79° |
| 2026-05-05 01:47 | 10.04912 | -69.32569 | 4077 ft | 224 kts | 76° |
| 2026-05-05 01:47 | 10.05479 | -69.31088 | 5195 ft | 233 kts | 57° |
| 2026-05-05 01:48 | 10.06761 | -69.29886 | 5377 ft | 295 kts | 31° |
| 2026-05-05 01:48 | 10.08982 | -69.29445 | 4876 ft | 338 kts | 354° |
| 2026-05-05 01:48 | 10.11003 | -69.30061 | 6017 ft | 286 kts | 332° |
| 2026-05-05 01:48 | 10.12350 | -69.31287 | 6789 ft | 243 kts | 302° |
| 2026-05-05 01:49 | 10.12839 | -69.32926 | 7730 ft | 252 kts | 271° |
| 2026-05-05 01:49 | 10.12966 | -69.34713 | 8748 ft | 267 kts | 278° |
| 2026-05-05 01:49 | 10.13295 | -69.36646 | 9593 ft | 290 kts | 283° |
| 2026-05-05 01:49 | 10.13788 | -69.38702 | 10421 ft | 314 kts | 286° |
| 2026-05-05 01:50 | 10.14400 | -69.40848 | 11203 ft | 316 kts | 288° |
| 2026-05-05 01:50 | 10.15060 | -69.42953 | 11942 ft | 318 kts | 289° |
| 2026-05-05 01:50 | 10.15761 | -69.45074 | 12663 ft | 320 kts | 290° |
| 2026-05-05 01:50 | 10.16498 | -69.47236 | 13289 ft | 325 kts | 290° |
| 2026-05-05 01:51 | 10.17251 | -69.49405 | 13914 ft | 329 kts | 291° |
| 2026-05-05 01:51 | 10.18034 | -69.51636 | 14335 ft | 340 kts | 291° |
| 2026-05-05 01:51 | 10.18840 | -69.53920 | 14786 ft | 349 kts | 291° |
| 2026-05-05 01:51 | 10.19668 | -69.56257 | 15232 ft | 357 kts | 291° |
| 2026-05-05 01:52 | 10.20529 | -69.58682 | 15683 ft | 366 kts | 291° |
| 2026-05-05 01:52 | 10.21401 | -69.61136 | 16130 ft | 378 kts | 291° |
| 2026-05-05 01:52 | 10.22313 | -69.63701 | 16809 ft | 397 kts | 291° |
| 2026-05-05 01:52 | 10.23232 | -69.66367 | 17463 ft | 415 kts | 287° |
| 2026-05-05 01:53 | 10.23749 | -69.69315 | 18126 ft | 433 kts | 275° |
| 2026-05-05 01:53 | 10.23717 | -69.72395 | 18777 ft | 443 kts | 265° |
| 2026-05-05 01:53 | 10.23285 | -69.75499 | 19421 ft | 447 kts | 263° |
| 2026-05-05 01:53 | 10.22868 | -69.78645 | 20054 ft | 450 kts | 264° |
| 2026-05-05 01:54 | 10.22478 | -69.81801 | 20673 ft | 446 kts | 264° |
| 2026-05-05 01:54 | 10.22105 | -69.84918 | 21170 ft | 445 kts | 264° |
| 2026-05-05 01:54 | 10.21742 | -69.88000 | 21659 ft | 444 kts | 264° |
| 2026-05-05 01:54 | 10.21374 | -69.91142 | 22159 ft | 443 kts | 265° |
| 2026-05-05 01:55 | 10.21014 | -69.94240 | 22654 ft | 442 kts | 265° |
| 2026-05-05 01:55 | 10.20655 | -69.97327 | 23146 ft | 440 kts | 265° |
| 2026-05-05 01:55 | 10.20301 | -70.00386 | 23637 ft | 438 kts | 265° |
| 2026-05-05 01:55 | 10.19945 | -70.03454 | 24060 ft | 439 kts | 265° |
| 2026-05-05 01:56 | 10.19586 | -70.06562 | 24450 ft | 449 kts | 265° |
| 2026-05-05 01:56 | 10.19218 | -70.09747 | 24848 ft | 459 kts | 265° |
| 2026-05-05 01:56 | 10.18845 | -70.12981 | 25255 ft | 472 kts | 265° |
| 2026-05-05 01:56 | 10.18459 | -70.16326 | 25662 ft | 484 kts | 265° |
| 2026-05-05 01:57 | 10.18063 | -70.19758 | 26066 ft | 495 kts | 265° |
| 2026-05-05 01:57 | 10.17662 | -70.23236 | 26463 ft | 501 kts | 265° |
| 2026-05-05 01:57 | 10.17258 | -70.26742 | 26846 ft | 501 kts | 265° |
| 2026-05-05 01:57 | 10.16859 | -70.30215 | 27206 ft | 494 kts | 265° |
| 2026-05-05 01:58 | 10.16462 | -70.33671 | 27569 ft | 490 kts | 265° |
| 2026-05-05 01:58 | 10.16072 | -70.37071 | 27944 ft | 493 kts | 265° |
| 2026-05-05 01:58 | 10.15675 | -70.40539 | 28328 ft | 495 kts | 265° |
| 2026-05-05 01:58 | 10.15278 | -70.44002 | 28706 ft | 493 kts | 265° |
| 2026-05-05 01:59 | 10.14885 | -70.47427 | 29076 ft | 492 kts | 266° |
| 2026-05-05 01:59 | 10.14491 | -70.50880 | 29413 ft | 492 kts | 266° |
| 2026-05-05 01:59 | 10.14100 | -70.54296 | 29648 ft | 487 kts | 266° |
| 2026-05-05 01:59 | 10.13715 | -70.57673 | 29888 ft | 483 kts | 266° |
| 2026-05-05 02:00 | 10.13326 | -70.61081 | 30134 ft | 479 kts | 266° |
| 2026-05-05 02:00 | 10.12953 | -70.64352 | 30372 ft | 476 kts | 266° |
| 2026-05-05 02:00 | 10.12564 | -70.67774 | 30622 ft | 473 kts | 266° |
| 2026-05-05 02:00 | 10.12188 | -70.71082 | 30865 ft | 470 kts | 266° |
| 2026-05-05 02:01 | 10.11814 | -70.74373 | 31109 ft | 467 kts | 266° |
| 2026-05-05 02:01 | 10.11448 | -70.77596 | 31351 ft | 464 kts | 266° |
| 2026-05-05 02:01 | 10.11079 | -70.80849 | 31595 ft | 462 kts | 266° |
| 2026-05-05 02:01 | 10.10714 | -70.84073 | 31837 ft | 459 kts | 266° |
| 2026-05-05 02:02 | 10.10352 | -70.87280 | 32080 ft | 457 kts | 266° |
| 2026-05-05 02:02 | 10.09990 | -70.90482 | 32322 ft | 455 kts | 266° |
| 2026-05-05 02:02 | 10.09635 | -70.93629 | 32563 ft | 452 kts | 265° |
| 2026-05-05 02:02 | 10.09275 | -70.96813 | 32808 ft | 450 kts | 265° |
| 2026-05-05 02:03 | 10.08923 | -70.99940 | 33049 ft | 448 kts | 265° |
| 2026-05-05 02:03 | 10.08569 | -71.03071 | 33292 ft | 446 kts | 265° |
| 2026-05-05 02:03 | 10.08220 | -71.06172 | 33534 ft | 444 kts | 265° |
| 2026-05-05 02:03 | 10.07864 | -71.09326 | 33781 ft | 441 kts | 265° |
| 2026-05-05 02:04 | 10.07514 | -71.12437 | 33905 ft | 442 kts | 265° |
| 2026-05-05 02:04 | 10.07167 | -71.15520 | 33915 ft | 446 kts | 265° |
| 2026-05-05 02:04 | 10.06458 | -71.21841 | 33920 ft | 452 kts | 265° |
| 2026-05-05 02:05 | 10.05740 | -71.28252 | 33919 ft | 458 kts | 265° |
| 2026-05-05 02:05 | 10.05020 | -71.34689 | 33918 ft | 462 kts | 265° |
| 2026-05-05 02:06 | 10.04293 | -71.41197 | 33917 ft | 466 kts | 265° |
| 2026-05-05 02:06 | 10.03565 | -71.47734 | 33917 ft | 468 kts | 265° |
| 2026-05-05 02:07 | 10.02835 | -71.54295 | 33916 ft | 470 kts | 265° |
| 2026-05-05 02:07 | 10.02102 | -71.60893 | 33916 ft | 471 kts | 265° |
| 2026-05-05 02:08 | 10.01370 | -71.67491 | 33914 ft | 472 kts | 265° |
| 2026-05-05 02:08 | 10.00633 | -71.74154 | 33913 ft | 473 kts | 265° |
| 2026-05-05 02:09 | 9.99707 | -71.80830 | 33914 ft | 474 kts | 260° |
| 2026-05-05 02:09 | 9.98166 | -71.87373 | 33915 ft | 475 kts | 257° |
| 2026-05-05 02:10 | 9.96520 | -71.93836 | 33914 ft | 476 kts | 257° |
| 2026-05-05 02:10 | 9.94867 | -72.00325 | 33941 ft | 475 kts | 257° |
| 2026-05-05 02:11 | 9.93213 | -72.06827 | 33941 ft | 475 kts | 257° |
| 2026-05-05 02:11 | 9.91565 | -72.13306 | 33941 ft | 476 kts | 257° |
| 2026-05-05 02:12 | 9.89097 | -72.23024 | 33938 ft | 476 kts | 257° |
| 2026-05-05 02:13 | 9.87448 | -72.29526 | 33938 ft | 476 kts | 257° |
| 2026-05-05 02:13 | 9.85797 | -72.36037 | 33938 ft | 476 kts | 257° |
| 2026-05-05 02:14 | 9.84157 | -72.42512 | 33939 ft | 476 kts | 257° |
| 2026-05-05 02:14 | 9.82497 | -72.49068 | 33939 ft | 476 kts | 257° |
| 2026-05-05 02:15 | 9.80853 | -72.55570 | 33939 ft | 476 kts | 257° |
| 2026-05-05 02:15 | 9.79215 | -72.62053 | 33939 ft | 476 kts | 257° |
| 2026-05-05 02:16 | 9.77577 | -72.68541 | 33937 ft | 476 kts | 257° |
| 2026-05-05 02:16 | 9.75949 | -72.74996 | 33937 ft | 476 kts | 257° |
| 2026-05-05 02:17 | 9.74302 | -72.81531 | 33937 ft | 476 kts | 257° |
| 2026-05-05 02:17 | 9.72666 | -72.88028 | 33938 ft | 476 kts | 257° |
| 2026-05-05 02:18 | 9.71033 | -72.94516 | 33938 ft | 476 kts | 257° |
| 2026-05-05 02:18 | 9.69400 | -73.01021 | 33937 ft | 476 kts | 256° |
| 2026-05-05 02:19 | 9.67770 | -73.07513 | 33940 ft | 477 kts | 256° |
| 2026-05-05 02:19 | 9.66133 | -73.14033 | 33941 ft | 476 kts | 255° |
| 2026-05-05 02:20 | 9.64501 | -73.20533 | 33939 ft | 473 kts | 255° |
| 2026-05-05 02:20 | 9.62888 | -73.26967 | 33938 ft | 471 kts | 255° |
| 2026-05-05 02:21 | 9.61282 | -73.33379 | 33939 ft | 470 kts | 255° |
| 2026-05-05 02:21 | 9.59675 | -73.39797 | 33940 ft | 470 kts | 255° |
| 2026-05-05 02:22 | 9.58066 | -73.46235 | 33940 ft | 470 kts | 255° |
| 2026-05-05 02:22 | 9.56467 | -73.52634 | 33940 ft | 470 kts | 255° |
| 2026-05-05 02:23 | 9.54864 | -73.59056 | 33940 ft | 470 kts | 255° |
| 2026-05-05 02:23 | 9.53261 | -73.65482 | 33940 ft | 470 kts | 255° |
| 2026-05-05 02:24 | 9.51668 | -73.71877 | 33938 ft | 470 kts | 255° |
| 2026-05-05 02:24 | 9.50076 | -73.78265 | 33938 ft | 470 kts | 255° |
| 2026-05-05 02:25 | 9.48475 | -73.84699 | 33938 ft | 470 kts | 255° |
| 2026-05-05 02:25 | 9.46822 | -73.91351 | 33939 ft | 470 kts | 255° |
| 2026-05-05 02:26 | 9.45227 | -73.97770 | 33930 ft | 470 kts | 255° |
| 2026-05-05 02:26 | 9.43625 | -74.04219 | 33915 ft | 470 kts | 255° |
| 2026-05-05 02:27 | 9.42043 | -74.10599 | 33901 ft | 470 kts | 255° |
| 2026-05-05 02:27 | 9.40451 | -74.17020 | 33887 ft | 470 kts | 255° |
| 2026-05-05 02:28 | 9.38857 | -74.23455 | 33885 ft | 470 kts | 255° |
| 2026-05-05 02:28 | 9.37283 | -74.29817 | 33885 ft | 470 kts | 255° |
| 2026-05-05 02:29 | 9.35697 | -74.36229 | 33885 ft | 470 kts | 255° |
| 2026-05-05 02:29 | 9.34109 | -74.42654 | 33885 ft | 470 kts | 255° |
| 2026-05-05 02:30 | 9.32522 | -74.49082 | 33885 ft | 470 kts | 255° |
| 2026-05-05 02:30 | 9.30939 | -74.55495 | 33885 ft | 470 kts | 255° |
| 2026-05-05 02:31 | 9.29357 | -74.61912 | 33886 ft | 470 kts | 255° |
| 2026-05-05 02:31 | 9.27776 | -74.68327 | 33884 ft | 470 kts | 255° |
| 2026-05-05 02:32 | 9.26202 | -74.74720 | 33884 ft | 470 kts | 255° |
| 2026-05-05 02:32 | 9.24626 | -74.81128 | 33884 ft | 470 kts | 255° |
| 2026-05-05 02:33 | 9.23047 | -74.87549 | 33884 ft | 470 kts | 255° |
| 2026-05-05 02:33 | 9.21473 | -74.93953 | 33884 ft | 471 kts | 256° |
| 2026-05-05 02:34 | 9.19893 | -75.00391 | 33885 ft | 472 kts | 256° |
| 2026-05-05 02:34 | 9.18317 | -75.06815 | 33885 ft | 472 kts | 256° |
| 2026-05-05 02:35 | 9.16735 | -75.13270 | 33885 ft | 471 kts | 256° |
| 2026-05-05 02:35 | 9.15160 | -75.19703 | 33885 ft | 470 kts | 256° |
| 2026-05-05 02:36 | 9.13592 | -75.26115 | 33886 ft | 470 kts | 256° |
| 2026-05-05 02:36 | 9.12017 | -75.32553 | 33886 ft | 470 kts | 256° |
| 2026-05-05 02:37 | 9.10457 | -75.38939 | 33886 ft | 470 kts | 256° |
| 2026-05-05 02:37 | 9.08888 | -75.45361 | 33886 ft | 470 kts | 256° |
| 2026-05-05 02:38 | 9.07314 | -75.51814 | 33886 ft | 470 kts | 256° |
| 2026-05-05 02:38 | 9.05753 | -75.58216 | 33886 ft | 469 kts | 256° |
| 2026-05-05 02:39 | 9.04204 | -75.64571 | 33885 ft | 468 kts | 256° |
| 2026-05-05 02:39 | 9.02649 | -75.70955 | 33884 ft | 468 kts | 256° |
| 2026-05-05 02:40 | 9.01097 | -75.77332 | 33884 ft | 467 kts | 256° |
| 2026-05-05 02:40 | 8.99557 | -75.83665 | 33885 ft | 466 kts | 256° |
| 2026-05-05 02:41 | 8.98012 | -75.90022 | 33885 ft | 465 kts | 256° |
| 2026-05-05 02:41 | 8.96830 | -75.96464 | 33887 ft | 465 kts | 265° |
| 2026-05-05 02:42 | 8.96908 | -76.02956 | 33890 ft | 465 kts | 273° |
| 2026-05-05 02:42 | 8.97230 | -76.09490 | 33885 ft | 465 kts | 272° |
| 2026-05-05 02:43 | 8.97495 | -76.15775 | 33885 ft | 465 kts | 272° |
| 2026-05-05 02:43 | 8.97648 | -76.19499 | 33885 ft | 466 kts | 272° |
| 2026-05-05 02:44 | 8.97899 | -76.25661 | 33885 ft | 466 kts | 272° |
| 2026-05-05 02:44 | 8.98168 | -76.32227 | 33885 ft | 466 kts | 272° |
| 2026-05-05 02:45 | 8.98437 | -76.38805 | 33885 ft | 466 kts | 272° |
| 2026-05-05 02:45 | 8.98707 | -76.45344 | 33885 ft | 466 kts | 272° |
| 2026-05-05 02:46 | 8.98978 | -76.51893 | 33885 ft | 466 kts | 272° |
| 2026-05-05 02:46 | 8.99249 | -76.58415 | 33885 ft | 466 kts | 272° |
| 2026-05-05 02:47 | 8.99523 | -76.65002 | 33885 ft | 466 kts | 272° |
| 2026-05-05 02:47 | 8.99797 | -76.71538 | 33884 ft | 466 kts | 272° |
| 2026-05-05 02:48 | 9.00071 | -76.78075 | 33885 ft | 467 kts | 272° |
| 2026-05-05 02:48 | 9.00351 | -76.84678 | 33884 ft | 467 kts | 272° |
| 2026-05-05 02:48 | 9.00489 | -76.87936 | 33605 ft | 471 kts | 272° |
| 2026-05-05 02:49 | 9.00630 | -76.91256 | 33229 ft | 469 kts | 272° |
| 2026-05-05 02:49 | 9.00771 | -76.94560 | 32878 ft | 468 kts | 272° |
| 2026-05-05 02:49 | 9.00911 | -76.97850 | 32527 ft | 467 kts | 272° |
| 2026-05-05 02:49 | 9.01051 | -77.01128 | 32177 ft | 465 kts | 271° |
| 2026-05-05 02:50 | 9.01189 | -77.04351 | 31834 ft | 465 kts | 271° |
| 2026-05-05 02:50 | 9.01330 | -77.07634 | 31482 ft | 465 kts | 271° |
| 2026-05-05 02:50 | 9.01469 | -77.10880 | 31137 ft | 465 kts | 271° |
| 2026-05-05 02:50 | 9.01610 | -77.14159 | 30790 ft | 467 kts | 271° |
| 2026-05-05 02:51 | 9.01752 | -77.17450 | 30443 ft | 468 kts | 271° |
| 2026-05-05 02:51 | 9.01895 | -77.20761 | 30094 ft | 469 kts | 271° |
| 2026-05-05 02:51 | 9.02036 | -77.24015 | 29753 ft | 470 kts | 271° |
| 2026-05-05 02:51 | 9.02181 | -77.27345 | 29404 ft | 471 kts | 271° |
| 2026-05-05 02:52 | 9.02325 | -77.30665 | 29057 ft | 472 kts | 271° |
| 2026-05-05 02:52 | 9.02470 | -77.33992 | 28710 ft | 473 kts | 271° |
| 2026-05-05 02:52 | 9.02616 | -77.37328 | 28363 ft | 474 kts | 271° |
| 2026-05-05 02:52 | 9.02938 | -77.40614 | 28008 ft | 476 kts | 279° |
| 2026-05-05 02:53 | 9.03775 | -77.43863 | 27664 ft | 478 kts | 289° |
| 2026-05-05 02:53 | 9.05095 | -77.46931 | 27324 ft | 480 kts | 297° |
| 2026-05-05 02:53 | 9.06602 | -77.49952 | 26989 ft | 482 kts | 296° |
| 2026-05-05 02:53 | 9.08081 | -77.53040 | 26640 ft | 483 kts | 295° |
| 2026-05-05 02:54 | 9.09520 | -77.56105 | 26296 ft | 484 kts | 295° |
| 2026-05-05 02:54 | 9.10957 | -77.59187 | 25950 ft | 484 kts | 295° |
| 2026-05-05 02:54 | 9.12395 | -77.62283 | 25604 ft | 485 kts | 295° |
| 2026-05-05 02:54 | 9.13810 | -77.65334 | 25263 ft | 486 kts | 295° |
| 2026-05-05 02:55 | 9.15262 | -77.68465 | 24912 ft | 487 kts | 295° |
| 2026-05-05 02:55 | 9.16695 | -77.71556 | 24567 ft | 487 kts | 295° |
| 2026-05-05 02:55 | 9.18126 | -77.74642 | 24198 ft | 473 kts | 295° |
| 2026-05-05 02:55 | 9.19500 | -77.77607 | 23819 ft | 460 kts | 295° |
| 2026-05-05 02:56 | 9.20846 | -77.80507 | 23444 ft | 449 kts | 295° |
| 2026-05-05 02:56 | 9.22155 | -77.83329 | 23072 ft | 439 kts | 295° |
| 2026-05-05 02:56 | 9.23433 | -77.86084 | 22704 ft | 429 kts | 295° |
| 2026-05-05 02:56 | 9.24693 | -77.88799 | 22334 ft | 420 kts | 295° |
| 2026-05-05 02:57 | 9.25921 | -77.91447 | 21969 ft | 412 kts | 295° |
| 2026-05-05 02:57 | 9.27120 | -77.94029 | 21606 ft | 405 kts | 295° |
| 2026-05-05 02:57 | 9.28296 | -77.96563 | 21245 ft | 397 kts | 295° |
| 2026-05-05 02:57 | 9.29460 | -77.99070 | 20883 ft | 391 kts | 295° |
| 2026-05-05 02:58 | 9.30616 | -78.01559 | 20519 ft | 385 kts | 295° |
| 2026-05-05 02:58 | 9.31740 | -78.03979 | 20160 ft | 379 kts | 295° |
| 2026-05-05 02:58 | 9.32861 | -78.06393 | 19797 ft | 374 kts | 295° |
| 2026-05-05 02:58 | 9.33837 | -78.08801 | 19413 ft | 368 kts | 282° |
| 2026-05-05 02:59 | 9.34003 | -78.11332 | 19080 ft | 361 kts | 262° |
| 2026-05-05 02:59 | 9.33297 | -78.13728 | 18745 ft | 353 kts | 241° |
| 2026-05-05 02:59 | 9.31836 | -78.15660 | 18416 ft | 346 kts | 221° |
| 2026-05-05 02:59 | 9.30034 | -78.17271 | 18092 ft | 341 kts | 220° |
| 2026-05-05 03:00 | 9.28261 | -78.18852 | 17736 ft | 338 kts | 220° |
| 2026-05-05 03:00 | 9.26530 | -78.20406 | 17382 ft | 335 kts | 223° |
| 2026-05-05 03:00 | 9.25213 | -78.22324 | 17020 ft | 333 kts | 247° |
| 2026-05-05 03:00 | 9.24725 | -78.24613 | 16690 ft | 330 kts | 270° |
| 2026-05-05 03:01 | 9.24842 | -78.26921 | 16380 ft | 327 kts | 272° |
| 2026-05-05 03:01 | 9.24930 | -78.29183 | 16034 ft | 325 kts | 271° |
| 2026-05-05 03:01 | 9.24991 | -78.31486 | 15681 ft | 324 kts | 270° |